sensor_id;sensor_type;location;lat;lon;timestamp;P1;durP1;ratioP1;P2;durP2;ratioP2
17917;SDS011;9084;50.956;3.106;2022-11-06T00:02:06;5.13;;;2.92;;
17917;SDS011;9084;50.956;3.106;2022-11-06T00:04:32;5.97;;;2.83;;
17917;SDS011;9084;50.956;3.106;2022-11-06T00:06:58;8.63;;;3.67;;
17917;SDS011;9084;50.956;3.106;2022-11-06T00:09:23;6.20;;;3.17;;
17917;SDS011;9084;50.956;3.106;2022-11-06T00:11:49;7.60;;;3.67;;
17917;SDS011;9084;50.956;3.106;2022-11-06T00:14:17;6.90;;;2.78;;
17917;SDS011;9084;50.956;3.106;2022-11-06T00:16:43;7.53;;;3.08;;
17917;SDS011;9084;50.956;3.106;2022-11-06T00:19:10;4.85;;;3.33;;
17917;SDS011;9084;50.956;3.106;2022-11-06T00:21:36;4.68;;;2.95;;
17917;SDS011;9084;50.956;3.106;2022-11-06T00:24:05;5.07;;;2.75;;
17917;SDS011;9084;50.956;3.106;2022-11-06T00:26:32;3.28;;;2.70;;
17917;SDS011;9084;50.956;3.106;2022-11-06T00:29:02;5.47;;;2.97;;
17917;SDS011;9084;50.956;3.106;2022-11-06T00:31:32;7.07;;;2.97;;
17917;SDS011;9084;50.956;3.106;2022-11-06T00:34:00;4.78;;;2.67;;
17917;SDS011;9084;50.956;3.106;2022-11-06T00:36:27;3.83;;;2.70;;
17917;SDS011;9084;50.956;3.106;2022-11-06T00:38:56;4.75;;;2.70;;
17917;SDS011;9084;50.956;3.106;2022-11-06T00:41:23;5.20;;;3.13;;
17917;SDS011;9084;50.956;3.106;2022-11-06T00:43:57;6.18;;;3.30;;
17917;SDS011;9084;50.956;3.106;2022-11-06T00:46:25;5.93;;;3.30;;
17917;SDS011;9084;50.956;3.106;2022-11-06T00:48:52;5.72;;;3.03;;
17917;SDS011;9084;50.956;3.106;2022-11-06T00:51:24;6.82;;;3.20;;
17917;SDS011;9084;50.956;3.106;2022-11-06T00:54:00;8.13;;;2.85;;
17917;SDS011;9084;50.956;3.106;2022-11-06T00:56:29;6.57;;;3.30;;
17917;SDS011;9084;50.956;3.106;2022-11-06T00:58:57;5.00;;;3.20;;
17917;SDS011;9084;50.956;3.106;2022-11-06T01:01:30;7.03;;;3.35;;
17917;SDS011;9084;50.956;3.106;2022-11-06T01:04:01;5.72;;;3.42;;
17917;SDS011;9084;50.956;3.106;2022-11-06T01:06:32;6.90;;;3.58;;
17917;SDS011;9084;50.956;3.106;2022-11-06T01:08:59;5.10;;;3.50;;
17917;SDS011;9084;50.956;3.106;2022-11-06T01:11:29;6.38;;;3.58;;
17917;SDS011;9084;50.956;3.106;2022-11-06T01:13:58;6.15;;;3.15;;
17917;SDS011;9084;50.956;3.106;2022-11-06T01:16:25;7.28;;;3.30;;
17917;SDS011;9084;50.956;3.106;2022-11-06T01:18:54;6.57;;;4.45;;
17917;SDS011;9084;50.956;3.106;2022-11-06T01:21:27;6.78;;;3.88;;
17917;SDS011;9084;50.956;3.106;2022-11-06T01:23:57;7.57;;;3.50;;
17917;SDS011;9084;50.956;3.106;2022-11-06T01:26:25;7.20;;;3.83;;
17917;SDS011;9084;50.956;3.106;2022-11-06T01:28:51;6.05;;;3.83;;
17917;SDS011;9084;50.956;3.106;2022-11-06T01:31:19;4.63;;;3.22;;
17917;SDS011;9084;50.956;3.106;2022-11-06T01:33:46;7.28;;;3.67;;
17917;SDS011;9084;50.956;3.106;2022-11-06T01:36:14;9.30;;;3.92;;
17917;SDS011;9084;50.956;3.106;2022-11-06T01:38:43;5.03;;;3.20;;
17917;SDS011;9084;50.956;3.106;2022-11-06T01:41:13;7.43;;;3.80;;
17917;SDS011;9084;50.956;3.106;2022-11-06T01:43:56;7.80;;;4.30;;
17917;SDS011;9084;50.956;3.106;2022-11-06T01:46:29;8.63;;;3.83;;
17917;SDS011;9084;50.956;3.106;2022-11-06T01:49:03;8.65;;;3.92;;
17917;SDS011;9084;50.956;3.106;2022-11-06T01:51:35;7.55;;;3.30;;
17917;SDS011;9084;50.956;3.106;2022-11-06T01:54:06;5.25;;;3.72;;
17917;SDS011;9084;50.956;3.106;2022-11-06T01:56:36;5.88;;;3.42;;
17917;SDS011;9084;50.956;3.106;2022-11-06T01:59:03;8.32;;;3.67;;
17917;SDS011;9084;50.956;3.106;2022-11-06T02:01:33;6.03;;;4.00;;
17917;SDS011;9084;50.956;3.106;2022-11-06T02:04:09;4.40;;;3.78;;
17917;SDS011;9084;50.956;3.106;2022-11-06T02:06:47;5.88;;;3.03;;
17917;SDS011;9084;50.956;3.106;2022-11-06T02:09:15;6.97;;;3.92;;
17917;SDS011;9084;50.956;3.106;2022-11-06T02:11:43;6.93;;;4.05;;
17917;SDS011;9084;50.956;3.106;2022-11-06T02:16:50;6.30;;;3.58;;
17917;SDS011;9084;50.956;3.106;2022-11-06T02:22:20;4.75;;;3.72;;
17917;SDS011;9084;50.956;3.106;2022-11-06T02:25:12;5.43;;;3.58;;
17917;SDS011;9084;50.956;3.106;2022-11-06T02:27:47;7.22;;;3.67;;
17917;SDS011;9084;50.956;3.106;2022-11-06T02:30:20;11.25;;;4.72;;
17917;SDS011;9084;50.956;3.106;2022-11-06T02:32:56;7.05;;;3.58;;
17917;SDS011;9084;50.956;3.106;2022-11-06T02:35:26;8.10;;;3.03;;
17917;SDS011;9084;50.956;3.106;2022-11-06T02:38:13;5.78;;;2.83;;
17917;SDS011;9084;50.956;3.106;2022-11-06T02:40:50;3.80;;;2.85;;
17917;SDS011;9084;50.956;3.106;2022-11-06T02:43:20;7.30;;;3.22;;
17917;SDS011;9084;50.956;3.106;2022-11-06T02:45:53;5.85;;;3.58;;
17917;SDS011;9084;50.956;3.106;2022-11-06T02:48:41;6.30;;;3.08;;
17917;SDS011;9084;50.956;3.106;2022-11-06T02:51:12;5.72;;;2.95;;
17917;SDS011;9084;50.956;3.106;2022-11-06T02:53:45;5.03;;;3.17;;
17917;SDS011;9084;50.956;3.106;2022-11-06T02:56:19;5.70;;;2.97;;
17917;SDS011;9084;50.956;3.106;2022-11-06T02:58:54;8.18;;;3.30;;
17917;SDS011;9084;50.956;3.106;2022-11-06T03:01:34;7.45;;;3.42;;
17917;SDS011;9084;50.956;3.106;2022-11-06T03:04:11;6.38;;;3.28;;
17917;SDS011;9084;50.956;3.106;2022-11-06T03:06:53;4.55;;;2.58;;
17917;SDS011;9084;50.956;3.106;2022-11-06T03:09:33;7.60;;;3.35;;
17917;SDS011;9084;50.956;3.106;2022-11-06T03:12:00;8.43;;;3.47;;
17917;SDS011;9084;50.956;3.106;2022-11-06T03:14:43;3.42;;;2.92;;
17917;SDS011;9084;50.956;3.106;2022-11-06T03:17:22;6.28;;;2.80;;
17917;SDS011;9084;50.956;3.106;2022-11-06T03:22:59;4.97;;;3.00;;
17917;SDS011;9084;50.956;3.106;2022-11-06T03:25:40;5.63;;;2.55;;
17917;SDS011;9084;50.956;3.106;2022-11-06T03:28:18;5.57;;;2.92;;
17917;SDS011;9084;50.956;3.106;2022-11-06T03:30:58;3.95;;;2.53;;
17917;SDS011;9084;50.956;3.106;2022-11-06T03:33:32;5.95;;;2.80;;
17917;SDS011;9084;50.956;3.106;2022-11-06T03:36:05;6.35;;;2.60;;
17917;SDS011;9084;50.956;3.106;2022-11-06T03:38:37;4.53;;;2.28;;
17917;SDS011;9084;50.956;3.106;2022-11-06T03:41:08;6.20;;;3.05;;
17917;SDS011;9084;50.956;3.106;2022-11-06T03:43:39;4.97;;;2.60;;
17917;SDS011;9084;50.956;3.106;2022-11-06T03:46:10;4.63;;;2.80;;
17917;SDS011;9084;50.956;3.106;2022-11-06T03:48:44;4.45;;;2.33;;
17917;SDS011;9084;50.956;3.106;2022-11-06T03:51:16;5.65;;;2.83;;
17917;SDS011;9084;50.956;3.106;2022-11-06T03:53:53;4.80;;;2.13;;
17917;SDS011;9084;50.956;3.106;2022-11-06T03:59:04;6.03;;;2.60;;
17917;SDS011;9084;50.956;3.106;2022-11-06T04:01:37;6.07;;;2.40;;
17917;SDS011;9084;50.956;3.106;2022-11-06T04:04:10;4.38;;;2.60;;
17917;SDS011;9084;50.956;3.106;2022-11-06T04:06:52;2.78;;;1.92;;
17917;SDS011;9084;50.956;3.106;2022-11-06T04:09:24;6.65;;;2.65;;
17917;SDS011;9084;50.956;3.106;2022-11-06T04:12:12;4.90;;;2.58;;
17917;SDS011;9084;50.956;3.106;2022-11-06T04:15:02;4.88;;;2.63;;
17917;SDS011;9084;50.956;3.106;2022-11-06T04:17:29;5.18;;;2.83;;
17917;SDS011;9084;50.956;3.106;2022-11-06T04:19:56;7.03;;;2.47;;
17917;SDS011;9084;50.956;3.106;2022-11-06T04:22:44;6.53;;;2.70;;
17917;SDS011;9084;50.956;3.106;2022-11-06T04:25:26;5.13;;;2.20;;
17917;SDS011;9084;50.956;3.106;2022-11-06T04:28:37;3.97;;;2.28;;
17917;SDS011;9084;50.956;3.106;2022-11-06T04:33:41;4.00;;;2.80;;
17917;SDS011;9084;50.956;3.106;2022-11-06T04:36:31;4.43;;;2.20;;
17917;SDS011;9084;50.956;3.106;2022-11-06T04:42:08;2.85;;;2.08;;
17917;SDS011;9084;50.956;3.106;2022-11-06T04:44:32;3.03;;;2.13;;
17917;SDS011;9084;50.956;3.106;2022-11-06T04:47:12;4.63;;;2.05;;
17917;SDS011;9084;50.956;3.106;2022-11-06T04:49:48;5.60;;;2.40;;
17917;SDS011;9084;50.956;3.106;2022-11-06T04:52:20;4.53;;;1.95;;
17917;SDS011;9084;50.956;3.106;2022-11-06T04:54:52;5.13;;;2.28;;
17917;SDS011;9084;50.956;3.106;2022-11-06T04:57:21;3.70;;;2.20;;
17917;SDS011;9084;50.956;3.106;2022-11-06T04:59:47;3.38;;;2.45;;
17917;SDS011;9084;50.956;3.106;2022-11-06T05:02:14;9.05;;;2.33;;
17917;SDS011;9084;50.956;3.106;2022-11-06T05:04:42;8.15;;;2.60;;
17917;SDS011;9084;50.956;3.106;2022-11-06T05:07:13;2.58;;;2.10;;
17917;SDS011;9084;50.956;3.106;2022-11-06T05:09:39;4.15;;;2.00;;
17917;SDS011;9084;50.956;3.106;2022-11-06T05:12:06;3.95;;;2.15;;
17917;SDS011;9084;50.956;3.106;2022-11-06T05:14:32;3.70;;;2.30;;
17917;SDS011;9084;50.956;3.106;2022-11-06T05:16:58;6.38;;;2.60;;
17917;SDS011;9084;50.956;3.106;2022-11-06T05:19:24;3.75;;;1.70;;
17917;SDS011;9084;50.956;3.106;2022-11-06T05:21:52;2.70;;;1.70;;
17917;SDS011;9084;50.956;3.106;2022-11-06T05:24:39;6.28;;;2.00;;
17917;SDS011;9084;50.956;3.106;2022-11-06T05:27:06;6.38;;;1.80;;
17917;SDS011;9084;50.956;3.106;2022-11-06T05:29:32;7.13;;;2.28;;
17917;SDS011;9084;50.956;3.106;2022-11-06T05:31:58;2.35;;;1.50;;
17917;SDS011;9084;50.956;3.106;2022-11-06T05:34:28;4.05;;;1.88;;
17917;SDS011;9084;50.956;3.106;2022-11-06T05:36:56;2.10;;;1.45;;
17917;SDS011;9084;50.956;3.106;2022-11-06T05:39:21;5.22;;;1.90;;
17917;SDS011;9084;50.956;3.106;2022-11-06T05:41:50;3.88;;;1.92;;
17917;SDS011;9084;50.956;3.106;2022-11-06T05:44:18;4.55;;;1.75;;
17917;SDS011;9084;50.956;3.106;2022-11-06T05:46:44;4.63;;;1.98;;
17917;SDS011;9084;50.956;3.106;2022-11-06T05:49:12;2.53;;;1.73;;
17917;SDS011;9084;50.956;3.106;2022-11-06T05:51:39;3.75;;;1.67;;
17917;SDS011;9084;50.956;3.106;2022-11-06T05:54:05;3.17;;;1.42;;
17917;SDS011;9084;50.956;3.106;2022-11-06T05:56:30;7.82;;;2.33;;
17917;SDS011;9084;50.956;3.106;2022-11-06T05:58:56;3.63;;;1.50;;
17917;SDS011;9084;50.956;3.106;2022-11-06T06:01:22;4.15;;;1.80;;
17917;SDS011;9084;50.956;3.106;2022-11-06T06:03:48;3.75;;;1.75;;
17917;SDS011;9084;50.956;3.106;2022-11-06T06:06:16;3.67;;;2.40;;
17917;SDS011;9084;50.956;3.106;2022-11-06T06:08:46;5.38;;;1.85;;
17917;SDS011;9084;50.956;3.106;2022-11-06T06:11:12;4.40;;;1.92;;
17917;SDS011;9084;50.956;3.106;2022-11-06T06:13:38;5.40;;;2.00;;
17917;SDS011;9084;50.956;3.106;2022-11-06T06:16:03;3.45;;;1.73;;
17917;SDS011;9084;50.956;3.106;2022-11-06T06:18:30;4.93;;;2.40;;
17917;SDS011;9084;50.956;3.106;2022-11-06T06:20:58;7.57;;;1.70;;
17917;SDS011;9084;50.956;3.106;2022-11-06T06:23:26;4.20;;;1.40;;
17917;SDS011;9084;50.956;3.106;2022-11-06T06:25:52;4.93;;;1.80;;
17917;SDS011;9084;50.956;3.106;2022-11-06T06:28:21;3.33;;;1.77;;
17917;SDS011;9084;50.956;3.106;2022-11-06T06:30:49;4.45;;;1.88;;
17917;SDS011;9084;50.956;3.106;2022-11-06T06:33:14;2.42;;;1.42;;
17917;SDS011;9084;50.956;3.106;2022-11-06T06:35:40;6.47;;;1.88;;
17917;SDS011;9084;50.956;3.106;2022-11-06T06:38:09;4.03;;;1.65;;
17917;SDS011;9084;50.956;3.106;2022-11-06T06:40:35;3.38;;;1.60;;
17917;SDS011;9084;50.956;3.106;2022-11-06T06:43:03;6.35;;;1.83;;
17917;SDS011;9084;50.956;3.106;2022-11-06T06:45:31;5.45;;;2.00;;
17917;SDS011;9084;50.956;3.106;2022-11-06T06:48:01;3.13;;;1.33;;
17917;SDS011;9084;50.956;3.106;2022-11-06T06:50:28;3.25;;;1.55;;
17917;SDS011;9084;50.956;3.106;2022-11-06T06:52:57;2.33;;;1.42;;
17917;SDS011;9084;50.956;3.106;2022-11-06T06:55:26;2.90;;;1.48;;
17917;SDS011;9084;50.956;3.106;2022-11-06T06:57:55;4.72;;;1.52;;
17917;SDS011;9084;50.956;3.106;2022-11-06T07:00:23;4.88;;;1.63;;
17917;SDS011;9084;50.956;3.106;2022-11-06T07:02:49;4.18;;;1.70;;
17917;SDS011;9084;50.956;3.106;2022-11-06T07:05:16;5.30;;;1.90;;
17917;SDS011;9084;50.956;3.106;2022-11-06T07:07:41;4.70;;;1.50;;
17917;SDS011;9084;50.956;3.106;2022-11-06T07:10:09;4.72;;;1.40;;
17917;SDS011;9084;50.956;3.106;2022-11-06T07:12:37;5.22;;;1.60;;
17917;SDS011;9084;50.956;3.106;2022-11-06T07:15:05;2.97;;;1.60;;
17917;SDS011;9084;50.956;3.106;2022-11-06T07:17:32;3.67;;;2.03;;
17917;SDS011;9084;50.956;3.106;2022-11-06T07:20:00;4.82;;;1.85;;
17917;SDS011;9084;50.956;3.106;2022-11-06T07:22:28;4.38;;;1.50;;
17917;SDS011;9084;50.956;3.106;2022-11-06T07:24:54;3.88;;;2.15;;
17917;SDS011;9084;50.956;3.106;2022-11-06T07:27:22;5.82;;;1.85;;
17917;SDS011;9084;50.956;3.106;2022-11-06T07:29:48;3.78;;;1.88;;
17917;SDS011;9084;50.956;3.106;2022-11-06T07:32:13;3.90;;;1.75;;
17917;SDS011;9084;50.956;3.106;2022-11-06T07:34:39;5.45;;;2.20;;
17917;SDS011;9084;50.956;3.106;2022-11-06T07:37:07;3.38;;;1.60;;
17917;SDS011;9084;50.956;3.106;2022-11-06T07:39:37;4.88;;;1.67;;
17917;SDS011;9084;50.956;3.106;2022-11-06T07:42:05;4.90;;;1.60;;
17917;SDS011;9084;50.956;3.106;2022-11-06T07:44:30;3.33;;;1.80;;
17917;SDS011;9084;50.956;3.106;2022-11-06T07:46:56;3.17;;;1.77;;
17917;SDS011;9084;50.956;3.106;2022-11-06T07:49:22;3.72;;;1.30;;
17917;SDS011;9084;50.956;3.106;2022-11-06T07:51:51;3.40;;;1.95;;
17917;SDS011;9084;50.956;3.106;2022-11-06T07:54:19;2.22;;;1.45;;
17917;SDS011;9084;50.956;3.106;2022-11-06T07:56:47;4.57;;;1.98;;
17917;SDS011;9084;50.956;3.106;2022-11-06T07:59:14;5.22;;;2.28;;
17917;SDS011;9084;50.956;3.106;2022-11-06T08:01:42;3.75;;;1.98;;
17917;SDS011;9084;50.956;3.106;2022-11-06T08:04:07;6.07;;;2.33;;
17917;SDS011;9084;50.956;3.106;2022-11-06T08:06:33;5.53;;;1.75;;
17917;SDS011;9084;50.956;3.106;2022-11-06T08:09:07;7.03;;;2.13;;
17917;SDS011;9084;50.956;3.106;2022-11-06T08:11:35;5.05;;;2.20;;
17917;SDS011;9084;50.956;3.106;2022-11-06T08:14:02;4.45;;;2.15;;
17917;SDS011;9084;50.956;3.106;2022-11-06T08:16:30;5.43;;;2.22;;
17917;SDS011;9084;50.956;3.106;2022-11-06T08:18:58;5.22;;;2.50;;
17917;SDS011;9084;50.956;3.106;2022-11-06T08:21:26;3.53;;;1.83;;
17917;SDS011;9084;50.956;3.106;2022-11-06T08:23:54;5.38;;;1.80;;
17917;SDS011;9084;50.956;3.106;2022-11-06T08:26:19;3.17;;;2.00;;
17917;SDS011;9084;50.956;3.106;2022-11-06T08:28:48;6.07;;;2.45;;
17917;SDS011;9084;50.956;3.106;2022-11-06T08:31:16;4.50;;;1.80;;
17917;SDS011;9084;50.956;3.106;2022-11-06T08:33:42;4.22;;;2.03;;
17917;SDS011;9084;50.956;3.106;2022-11-06T08:36:08;7.60;;;2.53;;
17917;SDS011;9084;50.956;3.106;2022-11-06T08:38:39;3.13;;;1.90;;
17917;SDS011;9084;50.956;3.106;2022-11-06T08:41:06;5.38;;;2.10;;
17917;SDS011;9084;50.956;3.106;2022-11-06T08:43:34;5.60;;;2.20;;
17917;SDS011;9084;50.956;3.106;2022-11-06T08:46:06;4.90;;;2.42;;
17917;SDS011;9084;50.956;3.106;2022-11-06T08:48:35;4.60;;;2.50;;
17917;SDS011;9084;50.956;3.106;2022-11-06T08:51:04;6.18;;;2.17;;
17917;SDS011;9084;50.956;3.106;2022-11-06T08:53:32;5.63;;;2.08;;
17917;SDS011;9084;50.956;3.106;2022-11-06T08:56:01;7.13;;;2.08;;
17917;SDS011;9084;50.956;3.106;2022-11-06T08:58:31;5.65;;;2.20;;
17917;SDS011;9084;50.956;3.106;2022-11-06T09:00:59;3.33;;;2.28;;
17917;SDS011;9084;50.956;3.106;2022-11-06T09:03:28;5.00;;;1.98;;
17917;SDS011;9084;50.956;3.106;2022-11-06T09:05:54;6.53;;;2.50;;
17917;SDS011;9084;50.956;3.106;2022-11-06T09:08:19;5.75;;;2.20;;
17917;SDS011;9084;50.956;3.106;2022-11-06T09:10:45;4.28;;;1.92;;
17917;SDS011;9084;50.956;3.106;2022-11-06T09:13:11;5.20;;;1.92;;
17917;SDS011;9084;50.956;3.106;2022-11-06T09:15:36;5.15;;;1.95;;
17917;SDS011;9084;50.956;3.106;2022-11-06T09:18:03;3.33;;;1.80;;
17917;SDS011;9084;50.956;3.106;2022-11-06T09:20:31;4.15;;;2.28;;
17917;SDS011;9084;50.956;3.106;2022-11-06T09:23:02;3.88;;;2.10;;
17917;SDS011;9084;50.956;3.106;2022-11-06T09:25:29;3.38;;;1.80;;
17917;SDS011;9084;50.956;3.106;2022-11-06T09:27:56;4.20;;;2.35;;
17917;SDS011;9084;50.956;3.106;2022-11-06T09:30:27;3.33;;;2.22;;
17917;SDS011;9084;50.956;3.106;2022-11-06T09:32:56;5.00;;;2.13;;
17917;SDS011;9084;50.956;3.106;2022-11-06T09:35:23;4.85;;;2.47;;
17917;SDS011;9084;50.956;3.106;2022-11-06T09:37:51;4.93;;;2.65;;
17917;SDS011;9084;50.956;3.106;2022-11-06T09:40:35;4.57;;;2.28;;
17917;SDS011;9084;50.956;3.106;2022-11-06T09:46:17;6.00;;;2.65;;
17917;SDS011;9084;50.956;3.106;2022-11-06T09:48:45;5.55;;;2.00;;
17917;SDS011;9084;50.956;3.106;2022-11-06T09:54:21;4.22;;;2.38;;
17917;SDS011;9084;50.956;3.106;2022-11-06T09:56:54;4.28;;;2.05;;
17917;SDS011;9084;50.956;3.106;2022-11-06T09:59:24;3.28;;;2.03;;
17917;SDS011;9084;50.956;3.106;2022-11-06T10:01:54;2.60;;;2.13;;
17917;SDS011;9084;50.956;3.106;2022-11-06T10:07:10;6.10;;;1.90;;
17917;SDS011;9084;50.956;3.106;2022-11-06T10:09:53;3.92;;;2.00;;
17917;SDS011;9084;50.956;3.106;2022-11-06T10:12:23;4.00;;;1.83;;
17917;SDS011;9084;50.956;3.106;2022-11-06T10:15:06;3.95;;;2.15;;
17917;SDS011;9084;50.956;3.106;2022-11-06T10:17:50;4.35;;;2.15;;
17917;SDS011;9084;50.956;3.106;2022-11-06T10:20:44;3.85;;;1.92;;
17917;SDS011;9084;50.956;3.106;2022-11-06T10:26:30;5.32;;;1.80;;
17917;SDS011;9084;50.956;3.106;2022-11-06T10:28:59;3.53;;;1.95;;
17917;SDS011;9084;50.956;3.106;2022-11-06T10:37:12;5.88;;;2.17;;
17917;SDS011;9084;50.956;3.106;2022-11-06T10:39:44;4.68;;;2.75;;
17917;SDS011;9084;50.956;3.106;2022-11-06T10:42:13;3.72;;;2.13;;
17917;SDS011;9084;50.956;3.106;2022-11-06T10:47:25;5.97;;;2.08;;
17917;SDS011;9084;50.956;3.106;2022-11-06T10:49:57;5.18;;;2.13;;
17917;SDS011;9084;50.956;3.106;2022-11-06T10:52:45;5.38;;;2.33;;
17917;SDS011;9084;50.956;3.106;2022-11-06T10:58:22;4.25;;;1.80;;
17917;SDS011;9084;50.956;3.106;2022-11-06T11:00:58;3.30;;;1.75;;
17917;SDS011;9084;50.956;3.106;2022-11-06T11:03:36;4.55;;;1.88;;
17917;SDS011;9084;50.956;3.106;2022-11-06T11:06:06;3.60;;;2.05;;
17917;SDS011;9084;50.956;3.106;2022-11-06T11:08:33;3.55;;;1.80;;
17917;SDS011;9084;50.956;3.106;2022-11-06T11:11:05;4.18;;;2.40;;
17917;SDS011;9084;50.956;3.106;2022-11-06T11:13:41;5.38;;;2.88;;
17917;SDS011;9084;50.956;3.106;2022-11-06T11:18:48;4.63;;;1.90;;
17917;SDS011;9084;50.956;3.106;2022-11-06T11:21:19;4.13;;;1.70;;
17917;SDS011;9084;50.956;3.106;2022-11-06T11:24:03;2.80;;;1.60;;
17917;SDS011;9084;50.956;3.106;2022-11-06T11:26:36;4.72;;;1.80;;
17917;SDS011;9084;50.956;3.106;2022-11-06T11:29:14;4.10;;;2.10;;
17917;SDS011;9084;50.956;3.106;2022-11-06T11:31:54;6.95;;;2.42;;
17917;SDS011;9084;50.956;3.106;2022-11-06T11:34:26;3.78;;;1.95;;
17917;SDS011;9084;50.956;3.106;2022-11-06T11:37:00;4.18;;;1.90;;
17917;SDS011;9084;50.956;3.106;2022-11-06T11:39:40;4.80;;;1.80;;
17917;SDS011;9084;50.956;3.106;2022-11-06T11:42:15;3.47;;;2.10;;
17917;SDS011;9084;50.956;3.106;2022-11-06T11:44:44;3.97;;;2.05;;
17917;SDS011;9084;50.956;3.106;2022-11-06T11:47:21;4.57;;;1.77;;
17917;SDS011;9084;50.956;3.106;2022-11-06T11:49:48;11.05;;;2.35;;
17917;SDS011;9084;50.956;3.106;2022-11-06T11:52:18;4.93;;;1.90;;
17917;SDS011;9084;50.956;3.106;2022-11-06T11:54:51;2.53;;;1.80;;
17917;SDS011;9084;50.956;3.106;2022-11-06T11:57:19;4.93;;;1.77;;
17917;SDS011;9084;50.956;3.106;2022-11-06T11:59:51;3.97;;;1.52;;
17917;SDS011;9084;50.956;3.106;2022-11-06T12:02:27;3.85;;;1.80;;
17917;SDS011;9084;50.956;3.106;2022-11-06T12:05:32;3.08;;;1.42;;
17917;SDS011;9084;50.956;3.106;2022-11-06T12:08:01;3.67;;;1.90;;
17917;SDS011;9084;50.956;3.106;2022-11-06T12:10:38;3.63;;;1.70;;
17917;SDS011;9084;50.956;3.106;2022-11-06T12:15:44;2.28;;;1.33;;
17917;SDS011;9084;50.956;3.106;2022-11-06T12:28:36;5.25;;;2.22;;
17917;SDS011;9084;50.956;3.106;2022-11-06T12:31:13;7.13;;;2.42;;
17917;SDS011;9084;50.956;3.106;2022-11-06T12:34:03;2.80;;;1.48;;
17917;SDS011;9084;50.956;3.106;2022-11-06T12:36:40;4.45;;;1.85;;
17917;SDS011;9084;50.956;3.106;2022-11-06T12:39:21;3.72;;;1.88;;
17917;SDS011;9084;50.956;3.106;2022-11-06T12:41:52;6.30;;;2.00;;
17917;SDS011;9084;50.956;3.106;2022-11-06T12:44:21;4.78;;;1.92;;
17917;SDS011;9084;50.956;3.106;2022-11-06T12:49:33;3.47;;;1.80;;
17917;SDS011;9084;50.956;3.106;2022-11-06T12:55:02;4.32;;;1.60;;
17917;SDS011;9084;50.956;3.106;2022-11-06T13:00:39;2.88;;;1.73;;
17917;SDS011;9084;50.956;3.106;2022-11-06T13:06:09;6.40;;;2.13;;
17917;SDS011;9084;50.956;3.106;2022-11-06T13:17:21;3.53;;;2.00;;
17917;SDS011;9084;50.956;3.106;2022-11-06T13:19:58;3.03;;;1.90;;
17917;SDS011;9084;50.956;3.106;2022-11-06T13:22:44;2.47;;;1.67;;
17917;SDS011;9084;50.956;3.106;2022-11-06T13:25:21;3.40;;;2.05;;
17917;SDS011;9084;50.956;3.106;2022-11-06T13:30:20;2.70;;;2.03;;
17917;SDS011;9084;50.956;3.106;2022-11-06T13:32:58;2.78;;;1.83;;
17917;SDS011;9084;50.956;3.106;2022-11-06T13:35:33;1.77;;;1.67;;
17917;SDS011;9084;50.956;3.106;2022-11-06T13:38:11;3.20;;;1.73;;
17917;SDS011;9084;50.956;3.106;2022-11-06T13:40:44;5.15;;;1.77;;
17917;SDS011;9084;50.956;3.106;2022-11-06T13:43:18;5.78;;;1.90;;
17917;SDS011;9084;50.956;3.106;2022-11-06T13:49:13;1.42;;;1.27;;
17917;SDS011;9084;50.956;3.106;2022-11-06T13:54:17;4.28;;;2.15;;
17917;SDS011;9084;50.956;3.106;2022-11-06T13:57:02;4.30;;;2.10;;
17917;SDS011;9084;50.956;3.106;2022-11-06T13:59:50;2.60;;;1.80;;
17917;SDS011;9084;50.956;3.106;2022-11-06T14:05:23;3.00;;;1.80;;
17917;SDS011;9084;50.956;3.106;2022-11-06T14:07:55;3.17;;;1.77;;
17917;SDS011;9084;50.956;3.106;2022-11-06T14:10:25;4.82;;;1.98;;
17917;SDS011;9084;50.956;3.106;2022-11-06T14:12:59;3.00;;;1.75;;
17917;SDS011;9084;50.956;3.106;2022-11-06T14:15:35;1.85;;;1.67;;
17917;SDS011;9084;50.956;3.106;2022-11-06T14:18:03;2.28;;;1.80;;
17917;SDS011;9084;50.956;3.106;2022-11-06T14:20:34;2.17;;;1.90;;
17917;SDS011;9084;50.956;3.106;2022-11-06T14:28:38;2.35;;;1.70;;
17917;SDS011;9084;50.956;3.106;2022-11-06T14:31:06;2.78;;;1.70;;
17917;SDS011;9084;50.956;3.106;2022-11-06T14:38:41;5.15;;;2.28;;
17917;SDS011;9084;50.956;3.106;2022-11-06T14:43:57;2.63;;;1.67;;
17917;SDS011;9084;50.956;3.106;2022-11-06T14:46:48;2.85;;;1.60;;
17917;SDS011;9084;50.956;3.106;2022-11-06T14:52:14;2.33;;;2.05;;
17917;SDS011;9084;50.956;3.106;2022-11-06T14:54:48;5.20;;;2.83;;
17917;SDS011;9084;50.956;3.106;2022-11-06T14:57:33;2.53;;;2.00;;
17917;SDS011;9084;50.956;3.106;2022-11-06T15:00:03;1.92;;;1.80;;
17917;SDS011;9084;50.956;3.106;2022-11-06T15:02:38;3.38;;;2.58;;
17917;SDS011;9084;50.956;3.106;2022-11-06T15:05:12;2.92;;;1.90;;
17917;SDS011;9084;50.956;3.106;2022-11-06T15:10:55;2.70;;;2.17;;
17917;SDS011;9084;50.956;3.106;2022-11-06T15:15:48;2.10;;;1.92;;
17917;SDS011;9084;50.956;3.106;2022-11-06T15:18:19;2.08;;;1.77;;
17917;SDS011;9084;50.956;3.106;2022-11-06T15:20:48;3.28;;;1.90;;
17917;SDS011;9084;50.956;3.106;2022-11-06T15:23:36;1.75;;;1.65;;
17917;SDS011;9084;50.956;3.106;2022-11-06T15:26:23;3.03;;;1.60;;
17917;SDS011;9084;50.956;3.106;2022-11-06T15:31:25;1.42;;;1.33;;
17917;SDS011;9084;50.956;3.106;2022-11-06T15:36:23;2.08;;;1.65;;
17917;SDS011;9084;50.956;3.106;2022-11-06T15:38:50;1.40;;;1.30;;
17917;SDS011;9084;50.956;3.106;2022-11-06T15:41:23;1.70;;;1.30;;
17917;SDS011;9084;50.956;3.106;2022-11-06T15:43:53;3.47;;;1.40;;
17917;SDS011;9084;50.956;3.106;2022-11-06T15:46:22;3.15;;;1.77;;
17917;SDS011;9084;50.956;3.106;2022-11-06T15:49:14;2.47;;;1.80;;
17917;SDS011;9084;50.956;3.106;2022-11-06T15:51:40;1.70;;;1.48;;
17917;SDS011;9084;50.956;3.106;2022-11-06T15:54:35;2.65;;;1.75;;
17917;SDS011;9084;50.956;3.106;2022-11-06T15:57:18;2.20;;;1.67;;
17917;SDS011;9084;50.956;3.106;2022-11-06T15:59:47;2.10;;;1.40;;
17917;SDS011;9084;50.956;3.106;2022-11-06T16:02:22;2.78;;;1.65;;
17917;SDS011;9084;50.956;3.106;2022-11-06T16:04:48;2.13;;;1.67;;
17917;SDS011;9084;50.956;3.106;2022-11-06T16:07:15;1.75;;;1.52;;
17917;SDS011;9084;50.956;3.106;2022-11-06T16:09:43;2.15;;;1.80;;
17917;SDS011;9084;50.956;3.106;2022-11-06T16:12:14;2.25;;;2.08;;
17917;SDS011;9084;50.956;3.106;2022-11-06T16:14:43;2.90;;;2.10;;
17917;SDS011;9084;50.956;3.106;2022-11-06T16:17:15;2.13;;;1.92;;
17917;SDS011;9084;50.956;3.106;2022-11-06T16:19:46;2.42;;;1.90;;
17917;SDS011;9084;50.956;3.106;2022-11-06T16:22:17;2.47;;;1.77;;
17917;SDS011;9084;50.956;3.106;2022-11-06T16:24:46;2.38;;;1.98;;
17917;SDS011;9084;50.956;3.106;2022-11-06T16:27:15;2.85;;;2.17;;
17917;SDS011;9084;50.956;3.106;2022-11-06T16:29:48;2.85;;;2.05;;
17917;SDS011;9084;50.956;3.106;2022-11-06T16:32:22;2.20;;;2.00;;
17917;SDS011;9084;50.956;3.106;2022-11-06T16:34:50;2.50;;;1.98;;
17917;SDS011;9084;50.956;3.106;2022-11-06T16:39:45;2.90;;;2.70;;
17917;SDS011;9084;50.956;3.106;2022-11-06T16:44:49;2.28;;;2.10;;
17917;SDS011;9084;50.956;3.106;2022-11-06T16:47:25;3.33;;;2.00;;
17917;SDS011;9084;50.956;3.106;2022-11-06T16:49:51;2.40;;;2.20;;
17917;SDS011;9084;50.956;3.106;2022-11-06T16:52:30;4.18;;;2.88;;
17917;SDS011;9084;50.956;3.106;2022-11-06T16:55:05;4.45;;;2.90;;
17917;SDS011;9084;50.956;3.106;2022-11-06T16:57:35;3.50;;;2.90;;
17917;SDS011;9084;50.956;3.106;2022-11-06T17:02:45;5.00;;;2.72;;
17917;SDS011;9084;50.956;3.106;2022-11-06T17:05:26;4.20;;;2.75;;
17917;SDS011;9084;50.956;3.106;2022-11-06T17:08:19;3.97;;;3.00;;
17917;SDS011;9084;50.956;3.106;2022-11-06T17:10:58;4.95;;;4.05;;
17917;SDS011;9084;50.956;3.106;2022-11-06T17:13:47;4.60;;;3.00;;
17917;SDS011;9084;50.956;3.106;2022-11-06T17:16:15;3.42;;;3.13;;
17917;SDS011;9084;50.956;3.106;2022-11-06T17:18:43;4.30;;;3.00;;
17917;SDS011;9084;50.956;3.106;2022-11-06T17:23:47;4.43;;;3.10;;
17917;SDS011;9084;50.956;3.106;2022-11-06T17:28:44;3.75;;;3.30;;
17917;SDS011;9084;50.956;3.106;2022-11-06T17:31:14;3.88;;;3.17;;
17917;SDS011;9084;50.956;3.106;2022-11-06T17:33:43;3.38;;;3.13;;
17917;SDS011;9084;50.956;3.106;2022-11-06T17:36:19;3.72;;;3.28;;